Flight Track Log - Related Links

Times and Time Zones

All times are in EDT time to prevent confusion due to time zone crossing. See the CTL13 flight status page for this flight to view local times or setup timezone preferences in your user account.

Time Position Orientation Groundspeed Altitude Reporting Facility
EDT Latitude Longitude Course Direction KTS MPH feet Rate Location/Type
Thu 06:37:15 PM 41.5125 -81.6978 320° Northwest 115 132 1,000  Level Cleveland Center
Thu 06:37:51 PM 41.5250 -81.7119 320° Northwest 122 140 1,800 680 Climbing Cleveland Center
Thu 06:38:52 PM 41.5644 -81.7319 339° North 164 189 2,100 1,033 Climbing Cleveland Center
Thu 06:39:53 PM 41.5786 -81.7656 299° West 86 99 3,900 1,655 Climbing Cleveland Center
Thu 06:40:48 PM 41.5847 -81.7936 286° West 80 92 5,300 1,377 Climbing Cleveland Center
Thu 06:41:55 PM 41.5822 -81.8267 264° West 92 106 6,700 1,036 Climbing Cleveland Center
Thu 06:43:07 PM 41.5714 -81.8625 248° West 99 114 7,700 661 Climbing Cleveland Center
Thu 06:44:02 PM 41.5564 -81.8983 241° Southwest 124 143 8,100 207 Climbing Cleveland Center
Thu 06:45:03 PM 41.5392 -81.9481 245° Southwest 144 166 8,100  Level Cleveland Center
Thu 06:45:51 PM 41.5261 -81.9811 242° Southwest 138 159 8,100  Level Cleveland Center
Thu 06:46:46 PM 41.5089 -82.0222 241° Southwest 136 157 8,100 -52 Level Cleveland Center
Thu 06:47:46 PM 41.4917 -82.0661 242° Southwest 142 163 8,000  Descending Cleveland Center
Thu 06:48:53 PM 41.4722 -82.1211 245° Southwest 141 162 8,100 56 Climbing Cleveland Center
Thu 06:50:00 PM 41.4299 -82.1350 194° South  Level FlightAware Approximate
Thu 06:57:00 PM 41.3118 -82.4632 245° Southwest  Level Estimated
Thu 06:58:00 PM 41.2744 -82.4777 196° South  Level FlightAware Approximate
Thu 06:59:00 PM 41.2577 -82.5247 245° Southwest  Level Estimated
Thu 07:00:00 PM 41.2395 -82.5705 242° Southwest  Level FlightAware Approximate
Thu 07:01:00 PM 41.2212 -82.6164 242° Southwest  Level FlightAware Approximate
Thu 07:02:00 PM 41.2028 -82.6622 242° Southwest  Level FlightAware Approximate
Thu 07:03:00 PM 41.1845 -82.7079 242° Southwest  Level FlightAware Approximate
Thu 07:03:50 PM 41.2144 -82.8300 242° Southwest 163 188 8,900  Level Cleveland Center
Thu 07:04:00 PM 41.1662 -82.7537 242° Southwest  Level FlightAware Approximate
Thu 07:04:50 PM 41.1969 -82.8792 245° Southwest 149 171 9,500  Level Cleveland Center
Thu 07:05:00 PM 41.1478 -82.7994 242° Southwest  Level FlightAware Approximate
Thu 07:05:51 PM 41.1856 -82.9256 252° West 149 171 9,800  Level Cleveland Center
Thu 07:06:00 PM 41.1294 -82.8451 242° Southwest  Level FlightAware Approximate
Thu 07:06:50 PM 41.1658 -82.9744 242° Southwest 149 171 10,000  Level Cleveland Center
Thu 07:07:00 PM 41.1110 -82.8908 242° Southwest  Level FlightAware Approximate
Thu 07:07:50 PM 41.1458 -83.0289 244° Southwest 155 178 10,000  Level Cleveland Center
Thu 07:08:00 PM 41.0926 -82.9365 242° Southwest  Level FlightAware Approximate
Thu 07:08:51 PM 41.1258 -83.0806 243° Southwest 155 178 10,000  Level Cleveland Center
Thu 07:09:51 PM 41.1061 -83.1294 242° Southwest 155 178 10,000  Level Cleveland Center
Thu 07:10:51 PM 41.0903 -83.1811 248° West 155 178 10,000  Level Cleveland Center
Thu 07:11:50 PM 41.0683 -83.2300 239° Southwest 155 178 10,000  Level Cleveland Center
Thu 07:12:51 PM 41.0506 -83.2761 243° Southwest 155 178 10,000 -50 Level Cleveland Center
Thu 07:13:50 PM 41.0306 -83.3247 241° Southwest 155 178 9,900  Descending Cleveland Center
Thu 07:15:32 PM 40.9989 -83.4092 244° Southwest 153 176 10,000 37 Climbing Indianapolis Center
Thu 07:16:34 PM 40.9794 -83.4594 243° Southwest 152 175 10,000 -48 Level Indianapolis Center
Thu 07:17:36 PM 40.9567 -83.5156 242° Southwest 150 173 9,900 -48 Descending Indianapolis Center
Thu 07:18:38 PM 40.9369 -83.5642 242° Southwest 149 171 9,900 48 Level Indianapolis Center
Thu 07:19:40 PM 40.9178 -83.6128 242° Southwest 148 170 10,000 49 Climbing Indianapolis Center
Thu 07:20:41 PM 40.8992 -83.6625 244° Southwest 149 171 10,000  Level Indianapolis Center
Thu 07:21:43 PM 40.8783 -83.7119 241° Southwest 152 175 10,000  Level Indianapolis Center
Thu 07:22:45 PM 40.8589 -83.7614 243° Southwest 152 175 10,000  Level Indianapolis Center
Thu 07:23:47 PM 40.8400 -83.8089 242° Southwest 147 169 10,000  Level Indianapolis Center
Thu 07:24:49 PM 40.8183 -83.8656 243° Southwest 147 169 10,000  Level Indianapolis Center
Thu 07:25:51 PM 40.7978 -83.9139 241° Southwest 149 171 10,000 -49 Level Indianapolis Center
Thu 07:26:52 PM 40.7700 -83.9575 230° Southwest 155 178 9,900  Descending Indianapolis Center
Thu 07:27:54 PM 40.7444 -84.0033 234° Southwest 153 176 10,000 71 Climbing Indianapolis Center
Thu 07:28:16 PM 40.7328 -84.0236 233° Southwest 152 175 10,000 102 Level Indianapolis Center
Thu 07:28:53 PM 40.7181 -84.0522 236° Southwest 152 175 10,100 -59 Climbing Indianapolis Center
Thu 07:29:58 PM 40.6947 -84.0919 232° Southwest 150 173 9,900 -50 Descending Indianapolis Center
Thu 07:30:54 PM 40.6675 -84.1389 233° Southwest 151 174 10,000  Climbing Indianapolis Center
Thu 07:32:01 PM 40.6422 -84.1819 232° Southwest 153 176 9,900  Descending Indianapolis Center
Thu 07:33:02 PM 40.6122 -84.2306 231° Southwest 149 171 10,000 52 Climbing Indianapolis Center
Thu 07:33:57 PM 40.5881 -84.2714 232° Southwest 150 173 10,000  Level Indianapolis Center
Thu 07:34:57 PM 40.5636 -84.3147 233° Southwest 149 171 10,000 -46 Level Indianapolis Center
Thu 07:36:08 PM 40.5361 -84.3628 233° Southwest 148 170 9,900  Descending Indianapolis Center
Thu 07:36:59 PM 40.5128 -84.4011 231° Southwest 148 170 10,000 54 Climbing Indianapolis Center
Thu 07:38:00 PM 40.4883 -84.4444 233° Southwest 148 170 10,000  Level Indianapolis Center
Thu 07:39:07 PM 40.4592 -84.4925 231° Southwest 150 173 10,000  Level Indianapolis Center
Thu 07:40:16 PM 40.4325 -84.5367 232° Southwest 150 173 10,000  Level Indianapolis Center
Thu 07:41:17 PM 40.4075 -84.5819 234° Southwest 152 175 10,000  Level Indianapolis Center
Thu 07:42:19 PM 40.3778 -84.6328 233° Southwest 150 173 10,000  Level Indianapolis Center
Thu 07:43:16 PM 40.3564 -84.6756 237° Southwest 151 174 10,000  Level Indianapolis Center
Thu 07:44:10 PM 40.3319 -84.7161 232° Southwest 153 176 10,000  Level Indianapolis Center
Thu 07:45:25 PM 40.3017 -84.7675 232° Southwest 153 176 10,000  Level Indianapolis Center
Thu 07:46:05 PM 40.2828 -84.8022 235° Southwest 152 175 10,000  Level Indianapolis Center
Thu 07:46:26 PM 40.2775 -84.8131 237° Southwest 151 174 10,000  Level Indianapolis Center
Thu 07:47:06 PM 40.2561 -84.8450 229° Southwest 153 176 10,000  Level Indianapolis Center
Thu 07:47:28 PM 40.2494 -84.8581 236° Southwest 155 178 10,000  Level Indianapolis Center
Thu 07:48:07 PM 40.2314 -84.8906 234° Southwest 156 180 10,000  Level Indianapolis Center
Thu 07:48:30 PM 40.2222 -84.9069 234° Southwest 154 177 10,000  Level Indianapolis Center
Thu 07:49:14 PM 40.2042 -84.9414 236° Southwest 155 178 10,000  Level Indianapolis Center
Thu 07:49:31 PM 40.1950 -84.9533 225° Southwest 158 182 10,000  Level Indianapolis Center
Thu 07:50:08 PM 40.1797 -84.9817 235° Southwest 157 181 10,000  Level Indianapolis Center
Thu 07:50:33 PM 40.1700 -84.9986 233° Southwest 155 178 10,000  Level Indianapolis Center
Thu 07:51:09 PM 40.1528 -85.0269 232° Southwest 156 180 10,000  Level Indianapolis Center
Thu 07:51:35 PM 40.1433 -85.0436 233° Southwest 155 178 10,000  Level Indianapolis Center
Thu 07:52:10 PM 40.1256 -85.0750 233° Southwest 155 178 10,000  Level Indianapolis Center
Thu 07:52:36 PM 40.1153 -85.0889 226° Southwest 157 181 10,000  Level Indianapolis Center
Thu 07:53:04 PM 40.1014 -85.1125 232° Southwest 159 183 10,000  Level Indianapolis Center
Thu 07:53:38 PM 40.0883 -85.1344 232° Southwest 158 182 10,000  Level Indianapolis Center
Thu 07:54:40 PM 40.0564 -85.1856 231° Southwest 156 180 10,000  Level Indianapolis Center
Thu 07:55:41 PM 40.0536 -85.2372 266° West 146 168 10,000 -98 Level Indianapolis Center
Thu 07:56:43 PM 40.0575 -85.2889 276° West 142 163 9,800 -387 Descending Indianapolis Center
Thu 07:57:45 PM 40.0536 -85.3469 265° West 158 182 9,200 -581 Descending Indianapolis Center
Thu 07:58:47 PM 40.0503 -85.4058 266° West 162 186 8,600 -634 Descending Indianapolis Center
Thu 07:59:48 PM 40.0472 -85.4669 266° West 166 191 7,900 -732 Descending Indianapolis Center
Thu 08:00:50 PM 40.0439 -85.5264 266° West 165 190 7,100 -677 Descending Indianapolis Center
Thu 08:01:52 PM 40.0408 -85.5872 266° West 166 191 6,500 -585 Descending Indianapolis Center
Thu 08:02:53 PM 40.0369 -85.6564 266° West 165 190 5,900 -585 Descending Indianapolis Center
Thu 08:03:55 PM 40.0347 -85.7164 267° West 164 189 5,300 -581 Descending Indianapolis Center
Thu 08:04:57 PM 40.0319 -85.7761 267° West 165 190 4,700 -537 Descending Indianapolis Center
Thu 08:05:58 PM 40.0272 -85.8381 264° West 167 192 4,200 -585 Descending Indianapolis Center
Thu 08:07:00 PM 40.0225 -85.8992 264° West 169 194 3,500 -581 Descending Indianapolis Center
Thu 08:08:02 PM 40.0178 -85.9600 264° West 168 193 3,000 -194 Descending Indianapolis Center
Thu 08:09:04 PM 40.0106 -86.0164 261° West 163 188 3,100  Climbing Indianapolis Center
Thu 08:10:05 PM 39.9914 -86.0667 244° Southwest 156 180 3,000 -49 Descending Indianapolis Center
Thu 08:11:07 PM 39.9697 -86.1258 244° Southwest 155 178 3,000  Level Indianapolis Center
Thu 08:11:27 PM 39.9614 -86.1403 233° Southwest 155 178 3,000  Level Chicago Center

Login

Don't have an account? Register now (free) for customized features, flight alerts, and more!